Time;durP1;ratioP1;P1;durP2;ratioP2;P2;SDS_P1;SDS_P2;PMS_P1;PMS_P2;Temp;Humidity;BMP_temperature;BMP_pressure;BME280_temperature;BME280_humidity;BME280_pressure;Samples;Min_cycle;Max_cycle;Signal;HPM_P1;HPM_P2
2022/04/04 00:01:52;;;;;;;6.88;4.10;;;5.20;72.40;;;;;;5053736;28;20098;-64
2022/04/04 00:04:17;;;;;;;5.90;4.10;;;5.20;72.60;;;;;;5078362;28;20020;-64
2022/04/04 00:06:44;;;;;;;5.22;4.05;;;5.20;72.70;;;;;;5074769;28;20484;-63
2022/04/04 00:09:10;;;;;;;4.43;3.80;;;5.20;72.90;;;;;;5091812;28;20022;-64
2022/04/04 00:11:35;;;;;;;5.50;4.00;;;5.20;72.90;;;;;;5075458;28;20036;-64
2022/04/04 00:14:01;;;;;;;6.53;4.28;;;5.20;72.70;;;;;;5053609;28;20379;-63
2022/04/04 00:16:27;;;;;;;5.68;3.97;;;5.10;72.90;;;;;;5079483;28;20029;-63
2022/04/04 00:18:53;;;;;;;6.20;4.57;;;5.10;73.10;;;;;;5072311;28;20526;-64
2022/04/04 00:21:18;;;;;;;5.32;4.03;;;5.00;73.10;;;;;;5071831;28;20066;-64
2022/04/04 00:23:44;;;;;;;6.25;4.15;;;5.00;73.30;;;;;;5070466;28;20423;-64
2022/04/04 00:26:10;;;;;;;5.65;3.78;;;5.00;73.30;;;;;;5062762;28;20439;-64
2022/04/04 00:28:36;;;;;;;4.68;4.13;;;5.00;73.50;;;;;;5062844;28;20029;-63
2022/04/04 00:31:01;;;;;;;4.57;3.65;;;4.90;73.60;;;;;;5071924;28;20364;-59
2022/04/04 00:33:27;;;;;;;5.78;3.72;;;4.90;73.70;;;;;;5069800;28;20041;-57
2022/04/04 00:35:53;;;;;;;4.38;3.58;;;4.90;73.80;;;;;;5071135;28;20292;-58
2022/04/04 00:38:19;;;;;;;8.13;3.88;;;4.90;73.70;;;;;;5053300;28;20029;-64
2022/04/04 00:40:44;;;;;;;5.20;3.92;;;4.80;73.90;;;;;;5071069;28;20063;-63
2022/04/04 00:43:10;;;;;;;5.13;3.70;;;4.80;74.00;;;;;;5070547;28;20025;-63
2022/04/04 00:45:36;;;;;;;5.13;3.78;;;4.80;74.10;;;;;;5078406;28;20080;-63
2022/04/04 00:48:02;;;;;;;5.53;3.55;;;4.70;74.00;;;;;;5089857;28;20077;-64
2022/04/04 00:50:28;;;;;;;5.82;3.88;;;4.70;74.10;;;;;;5082540;28;20118;-64
2022/04/04 00:52:54;;;;;;;7.18;3.75;;;4.70;74.40;;;;;;5069474;28;20104;-58
2022/04/04 00:55:20;;;;;;;6.20;4.60;;;4.60;74.70;;;;;;5058744;28;20024;-59
2022/04/04 00:57:46;;;;;;;5.55;4.43;;;4.60;74.80;;;;;;5072103;28;20462;-57
2022/04/04 01:00:12;;;;;;;6.10;4.40;;;4.60;74.70;;;;;;5077018;28;20040;-58
2022/04/04 01:02:39;;;;;;;6.20;5.07;;;4.60;74.70;;;;;;5079886;28;20080;-64
2022/04/04 01:05:05;;;;;;;6.47;4.85;;;4.60;74.80;;;;;;5075357;28;20029;-63
2022/04/04 01:07:32;;;;;;;7.63;5.15;;;4.60;74.90;;;;;;5052967;28;20021;-63
2022/04/04 01:09:57;;;;;;;7.78;5.18;;;4.60;75.10;;;;;;5051604;28;20032;-64
2022/04/04 01:12:23;;;;;;;6.05;4.85;;;4.60;75.20;;;;;;5081168;28;20035;-64
2022/04/04 01:14:49;;;;;;;8.75;5.70;;;4.60;75.10;;;;;;5052304;28;20029;-57
2022/04/04 01:17:19;;;;;;;9.75;6.15;;;4.50;75.10;;;;;;5070819;28;20075;-58
2022/04/04 01:19:45;;;;;;;6.63;5.15;;;4.50;75.20;;;;;;5089667;28;20028;-59
2022/04/04 01:22:14;;;;;;;7.57;5.18;;;4.50;75.20;;;;;;5066846;28;20028;-57
2022/04/04 01:24:41;;;;;;;7.78;5.22;;;4.50;75.20;;;;;;5055900;28;20059;-63
2022/04/04 01:27:08;;;;;;;8.00;5.68;;;4.50;75.10;;;;;;5070241;28;20078;-64
2022/04/04 01:29:35;;;;;;;8.38;5.80;;;4.50;75.20;;;;;;5070541;28;20059;-63
2022/04/04 01:32:01;;;;;;;8.88;5.13;;;4.50;75.20;;;;;;5080836;28;20027;-64
2022/04/04 01:34:29;;;;;;;6.97;5.15;;;4.50;75.10;;;;;;5078817;28;20043;-64
2022/04/04 01:36:55;;;;;;;6.95;5.07;;;4.50;75.00;;;;;;5079836;28;20036;-64
2022/04/04 01:39:21;;;;;;;8.10;5.25;;;4.50;74.90;;;;;;5075762;28;20043;-64
2022/04/04 01:41:47;;;;;;;6.72;5.30;;;4.50;74.80;;;;;;5088988;28;20422;-63
2022/04/04 01:44:13;;;;;;;5.90;4.75;;;4.50;74.70;;;;;;5088579;28;20123;-59
2022/04/04 01:46:39;;;;;;;7.63;5.25;;;4.50;74.50;;;;;;5078920;28;20402;-60
2022/04/04 01:49:06;;;;;;;9.23;5.80;;;4.50;74.30;;;;;;5069732;28;20068;-58
2022/04/04 01:51:35;;;;;;;8.05;5.30;;;4.50;74.20;;;;;;5085269;28;20093;-56
2022/04/04 01:54:01;;;;;;;6.30;5.03;;;4.50;74.20;;;;;;5085343;28;20033;-58
2022/04/04 01:56:28;;;;;;;8.38;5.15;;;4.40;74.10;;;;;;5085348;28;20036;-54
2022/04/04 01:58:54;;;;;;;10.43;5.68;;;4.40;74.10;;;;;;5088813;28;20028;-57
2022/04/04 02:01:24;;;;;;;7.55;5.43;;;4.40;74.10;;;;;;5051585;28;20039;-58
2022/04/04 02:03:54;;;;;;;8.98;5.15;;;4.40;74.00;;;;;;5069284;28;20476;-57
2022/04/04 02:06:20;;;;;;;7.32;5.25;;;4.40;74.00;;;;;;5081841;28;20169;-55
2022/04/04 02:08:47;;;;;;;7.82;4.93;;;4.40;73.90;;;;;;5085087;28;20115;-60
2022/04/04 02:11:14;;;;;;;6.57;5.13;;;4.40;73.80;;;;;;5051532;28;20028;-59
2022/04/04 02:13:40;;;;;;;8.32;5.43;;;4.40;73.90;;;;;;5072076;28;20031;-64
2022/04/04 02:16:06;;;;;;;7.40;5.40;;;4.30;73.90;;;;;;5068976;28;20032;-59
2022/04/04 02:18:33;;;;;;;8.05;5.55;;;4.30;73.80;;;;;;5078185;28;20596;-58
2022/04/04 02:20:59;;;;;;;7.65;5.50;;;4.30;73.80;;;;;;5074307;28;20455;-54
2022/04/04 02:23:25;;;;;;;7.05;5.38;;;4.30;73.70;;;;;;5069365;28;20025;-58
2022/04/04 02:25:52;;;;;;;8.10;6.05;;;4.30;73.60;;;;;;5083394;28;20048;-58
2022/04/04 02:28:19;;;;;;;9.07;5.45;;;4.30;73.50;;;;;;5068654;28;20028;-59
2022/04/04 02:30:46;;;;;;;7.68;5.85;;;4.40;73.40;;;;;;5077956;28;20112;-64
2022/04/04 02:33:12;;;;;;;8.90;5.53;;;4.40;73.30;;;;;;5071982;28;20025;-59
2022/04/04 02:35:38;;;;;;;6.90;5.88;;;4.40;73.00;;;;;;5068753;28;20471;-56
2022/04/04 02:38:05;;;;;;;8.82;6.07;;;4.40;72.80;;;;;;5078647;28;20371;-56
2022/04/04 02:40:30;;;;;;;8.18;5.50;;;4.40;72.80;;;;;;5070667;28;20036;-58
2022/04/04 02:42:56;;;;;;;7.63;6.00;;;4.40;72.60;;;;;;5059718;28;20055;-59
2022/04/04 02:45:22;;;;;;;9.45;6.30;;;4.40;72.60;;;;;;5085018;28;20584;-57
2022/04/04 02:47:48;;;;;;;7.40;6.00;;;4.30;72.50;;;;;;5069623;28;20024;-58
2022/04/04 02:50:15;;;;;;;7.53;5.40;;;4.40;72.50;;;;;;5089433;28;20016;-56
2022/04/04 02:52:41;;;;;;;9.18;6.13;;;4.40;72.40;;;;;;5060187;28;20094;-58
2022/04/04 02:57:52;;;;;;;9.15;6.22;;;4.40;72.40;;;;;;5075398;28;20169;-57
2022/04/04 03:00:19;;;;;;;7.85;5.95;;;4.30;72.20;;;;;;5087623;28;20552;-62
2022/04/04 03:02:48;;;;;;;7.70;6.28;;;4.30;72.20;;;;;;5070094;28;20044;-62
2022/04/04 03:05:14;;;;;;;9.38;6.88;;;4.40;72.30;;;;;;5069439;28;20056;-62
2022/04/04 03:07:40;;;;;;;7.60;6.72;;;4.40;72.20;;;;;;5068610;28;20497;-62
2022/04/04 03:10:07;;;;;;;9.00;5.97;;;4.40;72.20;;;;;;5071735;28;20024;-62
2022/04/04 03:12:33;;;;;;;8.80;6.78;;;4.40;72.10;;;;;;5083914;28;20040;-62
2022/04/04 03:14:58;;;;;;;10.02;7.15;;;4.40;72.10;;;;;;5070188;28;20031;-62
2022/04/04 03:17:25;;;;;;;9.80;7.22;;;4.40;72.10;;;;;;5087288;28;20036;-62
2022/04/04 03:19:52;;;;;;;8.48;7.03;;;4.40;72.10;;;;;;5073801;28;20032;-62
2022/04/04 03:22:17;;;;;;;9.07;6.38;;;4.50;72.10;;;;;;5088808;28;20032;-62
2022/04/04 03:24:44;;;;;;;10.57;7.82;;;4.50;72.00;;;;;;5086934;28;20024;-62
2022/04/04 03:27:13;;;;;;;10.05;7.43;;;4.50;72.10;;;;;;5088891;28;20463;-62
2022/04/04 03:29:44;;;;;;;9.65;7.13;;;4.50;72.00;;;;;;5069772;28;20539;-62
2022/04/04 03:32:10;;;;;;;12.43;7.00;;;4.50;72.00;;;;;;5068708;28;20123;-62
2022/04/04 03:34:35;;;;;;;9.20;7.53;;;4.40;72.00;;;;;;5056711;28;20115;-62
2022/04/04 03:37:01;;;;;;;9.55;7.05;;;4.40;72.10;;;;;;5068233;28;20032;-62
2022/04/04 03:39:27;;;;;;;9.60;7.45;;;4.40;72.10;;;;;;5067729;28;20044;-62
2022/04/04 03:41:54;;;;;;;8.35;6.50;;;4.40;72.20;;;;;;5079335;28;20028;-55
2022/04/04 03:44:19;;;;;;;8.98;6.93;;;4.40;72.20;;;;;;5075326;28;20501;-57
2022/04/04 03:46:45;;;;;;;11.57;7.45;;;4.40;72.20;;;;;;5073725;28;20028;-58
2022/04/04 03:49:11;;;;;;;9.60;7.53;;;4.40;72.20;;;;;;5080653;28;20032;-59
2022/04/04 03:51:36;;;;;;;8.82;7.35;;;4.40;72.20;;;;;;5067617;28;20028;-58
2022/04/04 03:54:02;;;;;;;12.40;7.60;;;4.40;72.10;;;;;;5067806;28;20078;-55
2022/04/04 03:56:28;;;;;;;13.48;7.88;;;4.40;72.10;;;;;;5049797;28;20039;-55
2022/04/04 03:58:54;;;;;;;11.52;7.03;;;4.40;72.10;;;;;;5067551;28;20041;-58
2022/04/04 04:01:22;;;;;;;10.93;7.30;;;4.40;72.00;;;;;;5068622;28;20068;-56
2022/04/04 04:03:48;;;;;;;10.23;7.45;;;4.40;72.10;;;;;;5053354;28;20048;-58
2022/04/04 04:06:16;;;;;;;9.85;7.55;;;4.40;72.20;;;;;;5049892;28;20094;-60
2022/04/04 04:08:44;;;;;;;11.25;7.13;;;4.40;72.10;;;;;;5070032;28;20117;-64
2022/04/04 04:11:10;;;;;;;12.32;8.10;;;4.40;72.10;;;;;;5057737;28;20062;-64
2022/04/04 04:13:37;;;;;;;9.23;7.18;;;4.40;72.10;;;;;;5078876;28;20039;-63
2022/04/04 04:16:04;;;;;;;12.38;7.53;;;4.40;72.10;;;;;;5082196;28;20078;-57
2022/04/04 04:18:29;;;;;;;9.85;6.88;;;4.40;72.20;;;;;;5079645;28;20028;-58
2022/04/04 04:20:57;;;;;;;11.68;7.40;;;4.40;72.20;;;;;;5056155;28;20356;-57
2022/04/04 04:23:23;;;;;;;12.77;7.72;;;4.40;72.20;;;;;;5087850;28;20520;-56
2022/04/04 04:25:49;;;;;;;7.88;6.68;;;4.40;72.20;;;;;;5071541;28;20023;-59
2022/04/04 04:28:15;;;;;;;11.95;7.30;;;4.50;72.10;;;;;;5074855;28;20463;-57
2022/04/04 04:30:41;;;;;;;10.32;7.00;;;4.50;72.00;;;;;;5073991;28;20039;-59
2022/04/04 04:33:07;;;;;;;9.93;7.75;;;4.50;72.10;;;;;;5088310;28;20020;-59
2022/04/04 04:35:33;;;;;;;10.05;7.03;;;4.50;72.10;;;;;;5091184;28;20032;-57
2022/04/04 04:38:00;;;;;;;8.13;6.90;;;4.50;72.10;;;;;;5071492;28;20025;-58
2022/04/04 04:40:27;;;;;;;10.05;7.28;;;4.50;72.10;;;;;;5070670;28;20108;-59
2022/04/04 04:42:54;;;;;;;8.93;7.20;;;4.50;72.20;;;;;;5070850;28;20528;-59
2022/04/04 04:45:20;;;;;;;12.18;6.75;;;4.50;72.10;;;;;;5053387;28;20036;-57
2022/04/04 04:47:48;;;;;;;9.77;7.40;;;4.60;72.20;;;;;;5052586;28;20527;-57
2022/04/04 04:50:16;;;;;;;12.52;6.68;;;4.60;72.20;;;;;;5053059;28;20062;-62
2022/04/04 04:52:43;;;;;;;10.63;7.28;;;4.50;72.20;;;;;;5079487;28;20024;-62
2022/04/04 04:55:09;;;;;;;10.95;7.63;;;4.50;72.30;;;;;;5062638;28;20547;-62
2022/04/04 04:57:35;;;;;;;10.10;6.95;;;4.60;72.40;;;;;;5085046;28;20058;-63
2022/04/04 05:00:05;;;;;;;11.88;7.18;;;4.60;72.40;;;;;;5085140;28;20056;-62
2022/04/04 05:02:31;;;;;;;10.73;7.45;;;4.60;72.50;;;;;;5080448;28;20082;-62
2022/04/04 05:04:57;;;;;;;10.60;7.10;;;4.60;72.60;;;;;;5052681;28;20444;-62
2022/04/04 05:07:23;;;;;;;10.23;7.30;;;4.60;72.60;;;;;;5070694;28;20033;-64
2022/04/04 05:09:49;;;;;;;10.65;7.00;;;4.60;72.50;;;;;;5070284;28;20024;-61
2022/04/04 05:12:15;;;;;;;14.05;7.63;;;4.70;72.60;;;;;;5070108;28;20037;-62
2022/04/04 05:14:41;;;;;;;11.88;7.30;;;4.70;72.70;;;;;;5070421;28;20097;-62
2022/04/04 05:17:07;;;;;;;10.27;6.68;;;4.70;72.80;;;;;;5070497;28;20123;-63
2022/04/04 05:19:33;;;;;;;10.32;7.07;;;4.70;72.80;;;;;;5052160;28;20103;-62
2022/04/04 05:21:58;;;;;;;12.50;7.78;;;4.70;72.90;;;;;;5069994;28;20063;-62
2022/04/04 05:24:24;;;;;;;15.50;7.88;;;4.70;72.80;;;;;;5081535;28;20471;-62
2022/04/04 05:26:50;;;;;;;12.30;7.68;;;4.80;72.90;;;;;;5072894;28;20052;-62
2022/04/04 05:29:17;;;;;;;11.55;7.57;;;4.80;72.80;;;;;;5077919;28;20036;-62
2022/04/04 05:31:45;;;;;;;10.73;7.57;;;4.80;72.70;;;;;;5051586;28;20396;-57
2022/04/04 05:34:11;;;;;;;11.93;7.68;;;4.80;72.80;;;;;;5069784;28;20028;-57
2022/04/04 05:36:37;;;;;;;12.02;7.32;;;4.80;72.80;;;;;;5070122;28;20029;-56
2022/04/04 05:39:04;;;;;;;10.98;7.47;;;4.80;72.70;;;;;;5069868;28;20536;-58
2022/04/04 05:41:30;;;;;;;12.10;7.53;;;4.90;72.70;;;;;;5051195;28;20032;-57
2022/04/04 05:43:56;;;;;;;11.55;7.43;;;4.90;72.60;;;;;;5059378;28;20040;-56
2022/04/04 05:46:22;;;;;;;9.98;7.05;;;4.90;72.50;;;;;;5069797;28;20105;-57
2022/04/04 05:48:48;;;;;;;9.35;6.97;;;5.00;72.40;;;;;;5069059;28;20060;-57
2022/04/04 05:51:15;;;;;;;11.13;7.53;;;5.00;72.40;;;;;;5081289;28;20032;-58
2022/04/04 05:53:41;;;;;;;9.30;6.35;;;5.00;72.20;;;;;;5073738;28;20032;-57
2022/04/04 05:56:06;;;;;;;11.20;7.10;;;5.00;72.10;;;;;;5077221;28;20399;-58
2022/04/04 05:58:32;;;;;;;12.57;7.57;;;5.00;72.10;;;;;;5074691;28;20407;-57
2022/04/04 06:00:58;;;;;;;14.32;7.40;;;5.10;71.80;;;;;;5077463;28;20036;-57
2022/04/04 06:03:24;;;;;;;10.98;7.55;;;5.10;71.80;;;;;;5058391;28;20420;-57
2022/04/04 06:05:51;;;;;;;10.65;7.78;;;5.10;71.90;;;;;;5076642;28;20052;-56
2022/04/04 06:08:17;;;;;;;11.15;7.20;;;5.20;71.70;;;;;;5077050;28;20439;-57
2022/04/04 06:10:46;;;;;;;11.00;7.10;;;5.20;71.70;;;;;;5070735;28;20056;-58
2022/04/04 06:13:14;;;;;;;9.80;6.65;;;5.20;71.60;;;;;;5050940;28;20553;-57
2022/04/04 06:15:40;;;;;;;9.40;7.20;;;5.20;71.50;;;;;;5068116;28;20063;-57
2022/04/04 06:18:06;;;;;;;9.77;7.20;;;5.20;71.50;;;;;;5077965;28;20376;-57
2022/04/04 06:20:32;;;;;;;11.40;7.00;;;5.20;71.40;;;;;;5069782;28;20036;-58
2022/04/04 06:22:58;;;;;;;12.88;7.93;;;5.30;71.30;;;;;;5078424;28;20047;-57
2022/04/04 06:25:24;;;;;;;10.02;7.32;;;5.30;71.30;;;;;;5068307;28;20029;-57
2022/04/04 06:27:50;;;;;;;12.77;7.80;;;5.30;71.20;;;;;;5058914;28;20020;-57
2022/04/04 06:30:16;;;;;;;10.77;7.47;;;5.40;71.10;;;;;;5049051;28;20078;-58
2022/04/04 06:32:43;;;;;;;10.70;7.00;;;5.40;71.10;;;;;;5072192;28;20519;-57
2022/04/04 06:35:10;;;;;;;9.73;7.70;;;5.50;70.80;;;;;;5079166;28;20074;-58
2022/04/04 06:37:36;;;;;;;12.80;7.43;;;5.50;70.70;;;;;;5073482;28;20028;-58
2022/04/04 06:40:03;;;;;;;10.35;7.10;;;5.50;70.60;;;;;;5068376;28;20040;-58
2022/04/04 06:42:30;;;;;;;10.55;7.85;;;5.60;70.40;;;;;;5070681;28;20115;-56
2022/04/04 06:44:58;;;;;;;16.70;7.47;;;5.60;70.30;;;;;;5079259;28;20028;-58
2022/04/04 06:47:24;;;;;;;10.82;7.55;;;5.60;70.00;;;;;;5077846;28;20028;-57
2022/04/04 06:49:52;;;;;;;10.93;7.13;;;5.70;69.80;;;;;;5052734;28;20024;-58
2022/04/04 06:52:18;;;;;;;11.63;7.30;;;5.70;69.60;;;;;;5068936;28;20033;-59
2022/04/04 06:54:44;;;;;;;9.35;7.13;;;5.70;69.40;;;;;;5068409;28;20037;-58
2022/04/04 06:57:10;;;;;;;10.10;7.28;;;5.80;69.20;;;;;;5072759;28;20111;-58
2022/04/04 06:59:36;;;;;;;8.75;6.75;;;5.80;69.00;;;;;;5070811;28;20024;-58
2022/04/04 07:02:01;;;;;;;11.57;6.82;;;5.80;68.90;;;;;;5073654;28;20032;-57
2022/04/04 07:04:27;;;;;;;8.82;7.25;;;5.90;68.60;;;;;;5071946;28;20078;-57
2022/04/04 07:06:53;;;;;;;10.80;7.13;;;5.90;68.40;;;;;;5078075;28;20028;-58
2022/04/04 07:09:18;;;;;;;7.28;6.32;;;6.00;68.40;;;;;;5055686;28;20029;-63
2022/04/04 07:11:44;;;;;;;10.27;6.75;;;6.00;68.30;;;;;;5067435;28;20032;-63
2022/04/04 07:14:10;;;;;;;9.65;6.18;;;6.00;68.10;;;;;;5060553;28;20067;-63
2022/04/04 07:16:36;;;;;;;10.00;6.53;;;6.10;68.00;;;;;;5071663;28;20040;-62
2022/04/04 07:19:02;;;;;;;9.95;6.47;;;6.10;67.80;;;;;;5078735;28;20032;-62
2022/04/04 07:21:28;;;;;;;9.32;5.78;;;6.20;67.60;;;;;;5071092;28;20395;-64
2022/04/04 07:23:54;;;;;;;8.60;6.47;;;6.30;67.20;;;;;;5053366;28;20035;-63
2022/04/04 07:26:21;;;;;;;13.00;6.95;;;6.30;67.20;;;;;;5058741;28;20032;-63
2022/04/04 07:28:47;;;;;;;9.45;5.97;;;6.40;67.20;;;;;;5060860;28;20028;-63
2022/04/04 07:31:17;;;;;;;9.10;5.80;;;6.40;67.20;;;;;;5061726;28;20039;-63
2022/04/04 07:33:43;;;;;;;7.63;5.43;;;6.40;67.30;;;;;;5051409;28;20036;-63
2022/04/04 07:36:10;;;;;;;8.02;5.90;;;6.40;67.40;;;;;;5068668;28;20391;-63
2022/04/04 07:38:36;;;;;;;7.78;5.88;;;6.50;68.10;;;;;;5080707;28;20040;-63
2022/04/04 07:41:02;;;;;;;9.45;5.88;;;6.50;67.80;;;;;;5073014;28;20033;-58
2022/04/04 07:43:28;;;;;;;8.85;6.13;;;6.50;68.10;;;;;;5050940;28;20557;-59
2022/04/04 07:45:54;;;;;;;12.00;6.28;;;6.50;68.50;;;;;;5090396;28;20051;-63
2022/04/04 07:48:19;;;;;;;7.93;5.88;;;6.60;69.00;;;;;;5058058;28;20384;-63
2022/04/04 07:50:45;;;;;;;9.63;6.65;;;6.50;69.50;;;;;;5088468;28;20395;-63
2022/04/04 07:53:11;;;;;;;11.93;7.35;;;6.50;70.30;;;;;;5089525;28;20024;-63
2022/04/04 07:55:37;;;;;;;10.77;7.90;;;6.50;70.80;;;;;;5083977;28;20407;-63
2022/04/04 07:58:04;;;;;;;13.45;7.93;;;6.40;71.40;;;;;;5087637;28;20028;-63
2022/04/04 08:00:30;;;;;;;11.07;7.68;;;6.50;72.40;;;;;;5086816;28;20288;-63
2022/04/04 08:02:55;;;;;;;10.57;7.32;;;6.50;72.50;;;;;;5072913;28;20061;-63
2022/04/04 08:05:23;;;;;;;13.02;8.88;;;6.40;72.90;;;;;;5058475;28;20421;-63
2022/04/04 08:07:51;;;;;;;13.00;9.18;;;6.40;73.40;;;;;;5076424;28;20044;-59
2022/04/04 08:10:18;;;;;;;12.02;8.88;;;6.40;73.80;;;;;;5085434;28;20066;-63
2022/04/04 08:12:49;;;;;;;10.05;7.20;;;6.40;74.30;;;;;;5089640;28;20027;-63
2022/04/04 08:15:15;;;;;;;13.40;9.13;;;6.40;74.60;;;;;;5077320;28;20035;-63
2022/04/04 08:17:41;;;;;;;11.65;8.75;;;6.30;75.10;;;;;;5058791;28;20448;-59
2022/04/04 08:20:08;;;;;;;16.02;9.38;;;6.30;75.50;;;;;;5072809;28;20351;-59
2022/04/04 08:22:42;;;;;;;12.07;8.90;;;6.30;75.70;;;;;;5079764;28;20436;-59
2022/04/04 08:25:12;;;;;;;10.43;8.57;;;6.30;75.90;;;;;;5091337;28;20434;-58
2022/04/04 08:27:38;;;;;;;13.95;9.25;;;6.40;76.00;;;;;;5078241;28;20036;-57
2022/04/04 08:30:08;;;;;;;11.10;8.13;;;6.30;75.70;;;;;;5072011;28;20546;-59
2022/04/04 08:32:37;;;;;;;13.43;9.10;;;6.30;75.50;;;;;;5084820;28;20040;-59
2022/04/04 08:35:04;;;;;;;11.52;9.00;;;6.30;75.20;;;;;;5075131;28;20043;-59
2022/04/04 08:37:31;;;;;;;12.95;9.50;;;6.30;75.30;;;;;;5071503;28;20047;-63
2022/04/04 08:39:57;;;;;;;13.70;8.50;;;6.30;75.50;;;;;;5053766;28;20029;-58
2022/04/04 08:42:26;;;;;;;13.95;8.93;;;6.30;75.20;;;;;;5071279;28;20078;-59
2022/04/04 08:47:12;;;;;;;15.50;9.77;;;6.40;74.70;;;;;;5067386;28;20365;-57
2022/04/04 08:49:39;;;;;;;12.85;9.10;;;6.40;74.90;;;;;;5064972;28;20024;-60
2022/04/04 08:52:07;;;;;;;10.52;9.35;;;6.40;74.60;;;;;;5064373;28;20410;-57
2022/04/04 08:54:34;;;;;;;13.43;8.75;;;6.40;74.50;;;;;;5052392;28;20064;-59
2022/04/04 08:56:59;;;;;;;15.95;9.57;;;6.50;74.60;;;;;;5061519;28;20025;-53
2022/04/04 08:59:25;;;;;;;13.68;10.23;;;6.50;74.60;;;;;;5066195;28;20873;-58
2022/04/04 09:01:51;;;;;;;14.18;10.05;;;6.50;74.50;;;;;;5065362;28;20108;-57
2022/04/04 09:04:17;;;;;;;13.73;10.07;;;6.50;74.40;;;;;;5060315;28;20491;-58
2022/04/04 09:07:06;;;;;;;17.02;10.43;;;6.60;74.40;;;;;;5065179;28;20033;-63
2022/04/04 09:09:50;;;;;;;13.70;9.75;;;6.60;74.60;;;;;;5062975;28;20422;-58
2022/04/04 09:12:21;;;;;;;15.85;10.80;;;6.60;75.00;;;;;;5060700;28;21744;-58
2022/04/04 09:14:56;;;;;;;14.38;9.68;;;6.50;75.80;;;;;;5065178;28;20017;-57
2022/04/04 09:17:24;;;;;;;15.32;10.60;;;6.50;76.30;;;;;;5067288;28;20057;-57
2022/04/04 09:19:51;;;;;;;12.73;10.57;;;6.50;76.90;;;;;;5071963;28;20037;-58
2022/04/04 09:22:19;;;;;;;15.00;11.05;;;6.50;77.60;;;;;;5061580;28;20079;-59
2022/04/04 09:24:50;;;;;;;17.90;11.93;;;6.40;78.00;;;;;;5064126;28;20052;-58
2022/04/04 09:27:26;;;;;;;15.18;11.00;;;6.50;78.40;;;;;;5065537;28;20047;-59
2022/04/04 09:29:56;;;;;;;16.98;11.48;;;6.40;79.00;;;;;;5065193;28;20039;-56
2022/04/04 09:32:34;;;;;;;15.35;11.25;;;6.40;79.40;;;;;;5065213;28;20032;-62
2022/04/04 09:35:08;;;;;;;11.85;10.35;;;6.40;79.80;;;;;;5065599;28;20021;-63
2022/04/04 09:37:36;;;;;;;13.77;11.32;;;6.40;80.00;;;;;;5065498;28;20029;-63
2022/04/04 09:40:04;;;;;;;14.18;11.70;;;6.40;80.50;;;;;;5049220;28;20049;-57
2022/04/04 09:42:32;;;;;;;18.13;12.98;;;6.40;80.90;;;;;;5052674;28;20033;-58
2022/04/04 09:44:57;;;;;;;14.40;11.93;;;6.40;81.50;;;;;;5054235;28;20020;-58
2022/04/04 09:48:58;;;;;;;17.08;10.73;;;6.40;81.20;;;;;;5112570;27;20391;-59
2022/04/04 09:51:34;;;;;;;14.52;11.75;;;6.30;82.10;;;;;;5108725;27;20046;-64
2022/04/04 09:54:02;;;;;;;17.77;10.90;;;6.30;82.30;;;;;;5108957;27;20020;-61
2022/04/04 09:56:28;;;;;;;15.95;11.98;;;6.30;82.50;;;;;;5112481;28;20032;-61
2022/04/04 09:58:54;;;;;;;15.88;11.90;;;6.30;82.70;;;;;;5100094;28;20553;-61
2022/04/04 10:01:20;;;;;;;17.58;12.50;;;6.30;83.10;;;;;;5106958;28;20038;-57
2022/04/04 10:03:47;;;;;;;14.18;12.43;;;6.30;83.30;;;;;;5112181;28;20467;-57
2022/04/04 10:06:14;;;;;;;16.92;11.82;;;6.30;83.70;;;;;;5107947;28;20020;-58
2022/04/04 10:08:42;;;;;;;16.70;11.80;;;6.30;84.00;;;;;;5153132;27;20505;-59
2022/04/04 10:11:09;;;;;;;14.35;11.90;;;6.30;83.90;;;;;;5117784;27;20115;-59
2022/04/04 10:13:36;;;;;;;14.65;11.93;;;6.40;84.10;;;;;;5107356;28;20685;-62
2022/04/04 10:16:02;;;;;;;16.92;12.07;;;6.40;84.10;;;;;;5111345;28;20024;-63
2022/04/04 10:18:28;;;;;;;14.65;11.80;;;6.40;84.00;;;;;;5118775;28;20038;-58
2022/04/04 10:20:55;;;;;;;16.63;12.50;;;6.40;84.30;;;;;;5115467;28;20397;-58
2022/04/04 10:23:23;;;;;;;17.98;11.85;;;6.40;84.50;;;;;;5112695;28;20039;-58
2022/04/04 10:25:50;;;;;;;15.48;11.02;;;6.40;84.50;;;;;;5122682;27;20474;-63
2022/04/04 10:28:34;;;;;;;14.43;10.48;;;6.40;84.50;;;;;;5115265;27;20028;-62
2022/04/04 10:31:20;;;;;;;13.75;10.40;;;6.40;84.60;;;;;;5118713;27;20085;-62
2022/04/04 10:33:47;;;;;;;14.13;10.00;;;6.40;84.60;;;;;;5112164;28;20020;-62
2022/04/04 10:36:16;;;;;;;13.95;9.07;;;6.40;84.70;;;;;;5109426;28;20027;-62
2022/04/04 10:38:50;;;;;;;15.38;10.80;;;6.30;84.80;;;;;;5114844;28;20096;-62
2022/04/04 10:41:20;;;;;;;12.23;9.55;;;6.30;85.10;;;;;;5114191;27;20039;-62
2022/04/04 10:43:48;;;;;;;13.85;10.23;;;6.30;85.00;;;;;;5115344;28;20011;-59
2022/04/04 10:46:22;;;;;;;13.43;9.35;;;6.30;85.20;;;;;;5106851;27;20035;-58
2022/04/04 10:48:52;;;;;;;10.98;9.10;;;6.40;85.30;;;;;;5100843;28;20024;-57
2022/04/04 10:51:19;;;;;;;12.77;9.40;;;6.40;85.40;;;;;;5104612;28;20061;-58
2022/04/04 10:53:55;;;;;;;12.57;8.98;;;6.40;85.50;;;;;;5106085;28;20028;-59
2022/04/04 10:56:23;;;;;;;12.27;10.00;;;6.40;85.50;;;;;;5106801;27;20020;-58
2022/04/04 10:58:51;;;;;;;12.20;9.05;;;6.40;85.50;;;;;;5099062;28;20042;-61
2022/04/04 11:01:20;;;;;;;9.85;8.20;;;6.50;85.40;;;;;;5090074;28;20016;-58
2022/04/04 11:03:52;;;;;;;12.98;8.55;;;6.50;85.40;;;;;;5092397;28;20035;-61
2022/04/04 11:09:26;;;;;;;9.88;8.10;;;6.50;86.40;;;;;;5092527;28;20538;-62
2022/04/04 11:12:01;;;;;;;8.65;7.20;;;6.50;85.80;;;;;;5092375;28;20091;-63
2022/04/04 11:14:37;;;;;;;9.30;7.38;;;6.50;85.70;;;;;;5087458;28;20043;-60
2022/04/04 11:17:08;;;;;;;8.38;7.57;;;6.50;85.50;;;;;;5085963;28;20028;-59
2022/04/04 11:19:46;;;;;;;14.10;8.88;;;6.50;85.70;;;;;;5096106;28;20032;-60
2022/04/04 11:22:23;;;;;;;10.20;8.45;;;6.50;85.90;;;;;;5082778;28;20111;-60
2022/04/04 11:25:05;;;;;;;10.60;7.40;;;6.60;86.00;;;;;;5079146;28;20549;-60
2022/04/04 11:27:36;;;;;;;8.63;6.65;;;6.60;86.10;;;;;;5072457;28;20037;-60
2022/04/04 11:30:11;;;;;;;8.95;7.38;;;6.60;86.10;;;;;;5077749;28;20034;-60
2022/04/04 11:32:40;;;;;;;8.65;6.90;;;6.60;86.20;;;;;;5073669;28;20712;-61
2022/04/04 11:35:11;;;;;;;7.90;6.28;;;6.60;86.30;;;;;;5091366;28;20020;-60
2022/04/04 11:37:41;;;;;;;7.80;6.82;;;6.60;86.40;;;;;;5087239;28;20028;-60
2022/04/04 11:40:08;;;;;;;9.77;6.50;;;6.60;86.60;;;;;;5090339;28;20031;-60
2022/04/04 11:42:44;;;;;;;8.43;7.60;;;6.60;86.90;;;;;;5079872;28;20032;-60
2022/04/04 11:45:15;;;;;;;11.45;7.10;;;6.60;87.10;;;;;;5090710;28;20119;-58
2022/04/04 11:47:41;;;;;;;8.23;6.82;;;6.70;87.30;;;;;;5081042;28;20051;-60
2022/04/04 11:50:08;;;;;;;9.43;6.95;;;6.60;87.60;;;;;;5091151;28;20047;-60
2022/04/04 11:52:54;;;;;;;10.10;6.72;;;6.60;87.90;;;;;;5090484;28;20036;-60
2022/04/04 11:55:22;;;;;;;11.05;7.40;;;6.60;88.30;;;;;;5090661;28;20111;-60
2022/04/04 11:57:49;;;;;;;10.55;7.20;;;6.60;88.50;;;;;;5090898;28;20105;-60
2022/04/04 12:00:22;;;;;;;8.80;7.90;;;6.60;88.80;;;;;;5099035;28;20415;-63
2022/04/04 12:02:48;;;;;;;10.38;8.18;;;6.60;89.10;;;;;;5090042;28;20028;-63
2022/04/04 12:05:14;;;;;;;9.13;7.78;;;6.60;89.30;;;;;;5091448;28;20115;-64
2022/04/04 12:07:42;;;;;;;11.48;8.75;;;6.70;89.40;;;;;;5090951;28;20505;-63
2022/04/04 12:10:09;;;;;;;10.35;9.25;;;6.70;89.50;;;;;;5089984;28;20089;-63
2022/04/04 12:12:35;;;;;;;10.55;9.45;;;6.70;89.60;;;;;;5091170;28;20059;-63
2022/04/04 12:15:01;;;;;;;12.35;10.07;;;6.70;89.70;;;;;;5089031;28;20074;-63
2022/04/04 12:17:27;;;;;;;12.63;10.80;;;6.70;89.70;;;;;;5074732;28;20067;-63
2022/04/04 12:19:52;;;;;;;11.73;10.50;;;6.70;89.80;;;;;;5089421;28;20141;-63
2022/04/04 12:25:11;;;;;;;12.35;10.45;;;6.70;89.80;;;;;;5090702;28;20046;-61
2022/04/04 12:27:55;;;;;;;11.20;9.45;;;6.70;90.10;;;;;;5090346;28;20409;-61
2022/04/04 12:30:32;;;;;;;11.45;9.95;;;6.70;90.10;;;;;;5083255;28;20024;-62
2022/04/04 12:33:14;;;;;;;11.38;9.25;;;6.80;90.20;;;;;;5088747;28;20469;-61
2022/04/04 12:35:43;;;;;;;9.75;8.60;;;6.80;90.30;;;;;;5088354;28;20036;-61
2022/04/04 12:38:10;;;;;;;9.75;8.75;;;6.80;90.50;;;;;;5090045;28;20352;-62
2022/04/04 12:40:38;;;;;;;10.15;8.27;;;6.80;90.60;;;;;;5086907;28;20493;-58
2022/04/04 12:43:10;;;;;;;9.98;7.88;;;6.80;90.80;;;;;;5090068;28;20031;-58
2022/04/04 12:45:48;;;;;;;;;;;6.80;90.90;;;;;;5089131;28;20031;-59
2022/04/04 12:48:14;;;;;;;9.65;8.50;;;6.80;90.90;;;;;;5092715;28;19927;-58
2022/04/04 12:50:48;;;;;;;9.45;8.55;;;6.80;90.90;;;;;;5088862;28;20025;-56
2022/04/04 12:53:16;;;;;;;10.60;8.55;;;6.80;91.10;;;;;;5089249;28;20046;-57
2022/04/04 12:56:00;;;;;;;10.68;9.23;;;6.80;91.10;;;;;;5093182;28;20035;-57
2022/04/04 12:58:26;;;;;;;10.80;9.70;;;6.90;91.20;;;;;;5091878;28;20082;-59
2022/04/04 13:00:52;;;;;;;10.85;9.77;;;6.90;91.20;;;;;;5087205;28;20490;-58
2022/04/04 13:03:25;;;;;;;12.38;10.38;;;6.90;91.20;;;;;;5083740;28;20047;-61
2022/04/04 13:05:54;;;;;;;;;;;6.90;91.20;;;;;;5102254;28;20028;-62